Time;durP1;ratioP1;P1;durP2;ratioP2;P2;SDS_P1;SDS_P2;PMS_P1;PMS_P2;Temp;Humidity;BMP_temperature;BMP_pressure;BME280_temperature;BME280_humidity;BME280_pressure;Samples;Min_cycle;Max_cycle;Signal;HPM_P1;HPM_P2
2023/01/04 00:01:21;;;;;;;10.32;7.28;;;;;;;;;;5002006;28;20034;-77
2023/01/04 00:03:47;;;;;;;9.88;7.10;;;;;;;;;;4995634;28;20041;-78
2023/01/04 00:06:14;;;;;;;14.38;9.43;;;;;;;;;;5006521;28;20022;-78
2023/01/04 00:08:40;;;;;;;11.43;7.88;;;;;;;;;;5007457;28;20029;-79
2023/01/04 00:11:07;;;;;;;11.25;8.15;;;;;;;;;;5018447;28;20026;-79
2023/01/04 00:13:34;;;;;;;9.30;7.43;;;;;;;;;;5017528;28;20040;-80
2023/01/04 00:16:03;;;;;;;9.73;7.30;;;;;;;;;;5001066;28;20026;-79
2023/01/04 00:18:30;;;;;;;10.80;7.75;;;;;;;;;;5009054;28;20097;-79
2023/01/04 00:21:05;;;;;;;12.35;7.72;;;;;;;;;;5003678;28;20060;-78
2023/01/04 00:23:31;;;;;;;9.85;7.00;;;;;;;;;;5007845;28;20034;-80
2023/01/04 00:25:57;;;;;;;8.90;6.90;;;;;;;;;;5004795;28;20531;-78
2023/01/04 00:28:23;;;;;;;9.85;7.22;;;;;;;;;;5000193;28;20035;-79
2023/01/04 00:30:49;;;;;;;11.15;7.63;;;;;;;;;;4996605;28;20498;-78
2023/01/04 00:33:15;;;;;;;11.43;8.07;;;;;;;;;;4996277;28;20050;-79
2023/01/04 00:35:41;;;;;;;8.82;7.63;;;;;;;;;;5003518;28;20145;-78
2023/01/04 00:38:07;;;;;;;9.48;6.90;;;;;;;;;;5004294;28;20045;-78
2023/01/04 00:40:33;;;;;;;10.77;7.18;;;;;;;;;;5003673;28;20026;-78
2023/01/04 00:42:59;;;;;;;10.15;7.05;;;;;;;;;;5006842;28;20022;-79
2023/01/04 00:45:25;;;;;;;12.05;7.95;;;;;;;;;;5015898;28;20055;-78
2023/01/04 00:47:51;;;;;;;12.35;8.45;;;;;;;;;;5002933;28;20127;-78
2023/01/04 00:50:17;;;;;;;12.32;8.15;;;;;;;;;;5011581;28;20076;-78
2023/01/04 00:52:43;;;;;;;12.25;8.18;;;;;;;;;;5016775;28;20516;-79
2023/01/04 00:55:09;;;;;;;13.25;8.95;;;;;;;;;;5017837;28;20030;-79
2023/01/04 00:57:35;;;;;;;12.63;8.25;;;;;;;;;;5005521;28;20030;-78
2023/01/04 01:00:02;;;;;;;12.60;8.43;;;;;;;;;;5001114;28;20033;-77
2023/01/04 01:02:28;;;;;;;10.82;8.15;;;;;;;;;;5000281;28;20023;-78
2023/01/04 01:04:54;;;;;;;11.43;8.50;;;;;;;;;;5000161;28;20101;-78
2023/01/04 01:07:20;;;;;;;13.38;8.35;;;;;;;;;;4997463;28;20058;-78
2023/01/04 01:09:46;;;;;;;10.43;7.78;;;;;;;;;;5000499;28;20034;-78
2023/01/04 01:12:12;;;;;;;11.98;8.18;;;;;;;;;;5019918;28;20468;-78
2023/01/04 01:14:38;;;;;;;10.85;7.85;;;;;;;;;;5022963;28;20072;-78
2023/01/04 01:17:04;;;;;;;10.68;7.78;;;;;;;;;;5014981;28;20057;-78
2023/01/04 01:19:30;;;;;;;13.75;8.65;;;;;;;;;;5020129;28;20026;-78
2023/01/04 01:21:57;;;;;;;11.85;7.93;;;;;;;;;;5021707;28;20281;-78
2023/01/04 01:24:23;;;;;;;12.90;8.13;;;;;;;;;;5018902;28;20018;-78
2023/01/04 01:26:49;;;;;;;11.30;8.55;;;;;;;;;;5014749;28;20034;-78
2023/01/04 01:29:15;;;;;;;11.07;7.78;;;;;;;;;;4999878;28;20429;-78
2023/01/04 01:31:41;;;;;;;11.80;8.18;;;;;;;;;;5015892;28;20023;-78
2023/01/04 01:34:07;;;;;;;10.63;8.07;;;;;;;;;;5020234;28;20040;-79
2023/01/04 01:36:33;;;;;;;11.30;7.85;;;;;;;;;;5012334;28;20046;-78
2023/01/04 01:38:59;;;;;;;10.48;7.57;;;;;;;;;;5018816;28;20392;-78
2023/01/04 01:41:30;;;;;;;9.38;7.20;;;;;;;;;;5003097;28;20030;-78
2023/01/04 01:43:58;;;;;;;10.85;7.35;;;;;;;;;;4986783;28;20018;-79
2023/01/04 01:46:39;;;;;;;9.15;7.18;;;;;;;;;;5007265;28;20023;-78
2023/01/04 01:49:11;;;;;;;11.35;6.75;;;;;;;;;;5013325;28;20097;-78
2023/01/04 01:51:38;;;;;;;8.57;6.63;;;;;;;;;;5020359;28;20034;-77
2023/01/04 01:54:08;;;;;;;10.07;6.63;;;;;;;;;;5018906;28;20100;-78
2023/01/04 01:56:35;;;;;;;11.90;7.90;;;;;;;;;;5014803;28;20501;-78
2023/01/04 01:59:01;;;;;;;12.25;8.95;;;;;;;;;;4999474;28;20552;-78
2023/01/04 02:01:28;;;;;;;12.48;8.27;;;;;;;;;;5001762;28;20078;-79
2023/01/04 02:03:54;;;;;;;10.98;7.35;;;;;;;;;;5002427;28;20050;-79
2023/01/04 02:06:22;;;;;;;12.05;7.35;;;;;;;;;;5017068;28;20544;-78
2023/01/04 02:08:48;;;;;;;8.63;6.80;;;;;;;;;;5001110;28;20442;-79
2023/01/04 02:11:15;;;;;;;8.35;6.05;;;;;;;;;;4998451;28;20101;-79
2023/01/04 02:16:39;;;;;;;10.15;6.43;;;;;;;;;;5016983;28;20061;-79
2023/01/04 02:19:24;;;;;;;9.32;6.65;;;;;;;;;;5003738;28;20055;-79
2023/01/04 02:22:09;;;;;;;9.85;6.72;;;;;;;;;;5016846;28;20022;-79
2023/01/04 02:24:53;;;;;;;9.00;7.05;;;;;;;;;;5017813;28;20033;-78
2023/01/04 02:27:29;;;;;;;9.02;6.85;;;;;;;;;;5007685;28;20027;-78
2023/01/04 02:30:04;;;;;;;12.38;8.35;;;;;;;;;;4998970;28;20500;-78
2023/01/04 02:32:42;;;;;;;11.57;8.07;;;;;;;;;;4998561;28;20082;-79
2023/01/04 02:35:08;;;;;;;11.07;7.63;;;;;;;;;;5014430;28;20098;-79
2023/01/04 02:37:53;;;;;;;11.02;7.95;;;;;;;;;;5008726;28;20079;-79
2023/01/04 02:40:26;;;;;;;10.93;7.45;;;;;;;;;;4997460;28;20480;-78
2023/01/04 02:45:51;;;;;;;11.25;7.65;;;;;;;;;;5018686;28;20084;-79
2023/01/04 02:51:02;;;;;;;11.07;7.20;;;;;;;;;;5001989;28;20037;-78
2023/01/04 02:53:31;;;;;;;9.45;6.78;;;;;;;;;;4997254;28;20398;-78
2023/01/04 02:55:57;;;;;;;7.07;5.97;;;;;;;;;;5001507;28;20037;-78
2023/01/04 02:58:32;;;;;;;8.68;6.70;;;;;;;;;;5005035;28;20042;-80
2023/01/04 03:07:31;;;;;;;8.13;6.20;;;;;;;;;;5017862;28;20040;-78
2023/01/04 03:10:16;;;;;;;7.05;5.32;;;;;;;;;;5016890;28;20037;-79
2023/01/04 03:12:54;;;;;;;9.05;7.63;;;;;;;;;;5003029;28;20165;-78
2023/01/04 03:15:26;;;;;;;9.18;7.07;;;;;;;;;;5008752;28;20025;-78
2023/01/04 03:17:55;;;;;;;10.57;7.22;;;;;;;;;;5001662;28;20022;-78
2023/01/04 03:20:22;;;;;;;9.95;7.78;;;;;;;;;;5019384;28;20022;-78
2023/01/04 03:36:47;;;;;;;11.07;7.75;;;;;;;;;;5020422;28;20041;-78
2023/01/04 03:48:32;;;;;;;11.52;7.43;;;;;;;;;;5005157;28;20048;-78
2023/01/04 03:51:18;;;;;;;10.85;8.00;;;;;;;;;;5015364;28;20029;-78
2023/01/04 03:53:51;;;;;;;10.52;8.27;;;;;;;;;;5007929;28;20052;-79
2023/01/04 03:56:19;;;;;;;11.85;8.23;;;;;;;;;;4988389;28;20080;-77
2023/01/04 03:58:45;;;;;;;10.25;7.72;;;;;;;;;;5003300;28;20109;-77
2023/01/04 04:01:12;;;;;;;10.70;8.40;;;;;;;;;;4994961;28;20037;-78
2023/01/04 04:09:07;;;;;;;11.25;8.07;;;;;;;;;;5014956;28;20120;-78
2023/01/04 04:11:33;;;;;;;10.45;7.82;;;;;;;;;;5017477;28;20129;-79
2023/01/04 04:13:59;;;;;;;9.13;7.47;;;;;;;;;;5015553;28;20080;-79
2023/01/04 04:16:25;;;;;;;9.23;7.03;;;;;;;;;;5008944;28;20072;-78
2023/01/04 04:18:52;;;;;;;13.68;8.40;;;;;;;;;;5017985;28;20022;-79
2023/01/04 04:21:18;;;;;;;11.18;7.70;;;;;;;;;;5006571;28;20088;-78
2023/01/04 04:23:44;;;;;;;10.55;7.28;;;;;;;;;;5000333;28;20058;-79
2023/01/04 04:26:10;;;;;;;11.73;7.88;;;;;;;;;;5003629;28;20033;-77
2023/01/04 04:28:37;;;;;;;10.23;7.75;;;;;;;;;;4996276;28;20092;-78
2023/01/04 04:31:03;;;;;;;10.02;7.43;;;;;;;;;;4995140;28;20113;-78
2023/01/04 04:33:29;;;;;;;12.15;7.43;;;;;;;;;;4995655;28;20026;-78
2023/01/04 04:35:55;;;;;;;9.60;7.55;;;;;;;;;;5009464;28;20022;-79
2023/01/04 04:38:21;;;;;;;9.40;6.82;;;;;;;;;;4997224;28;20049;-79
2023/01/04 04:43:32;;;;;;;7.72;5.82;;;;;;;;;;5014443;28;20085;-78
2023/01/04 04:45:59;;;;;;;7.85;5.55;;;;;;;;;;5011215;28;20033;-78
2023/01/04 04:48:25;;;;;;;8.50;5.18;;;;;;;;;;4995957;28;20034;-78
2023/01/04 04:50:51;;;;;;;6.10;4.50;;;;;;;;;;5010349;28;20034;-78
2023/01/04 04:53:17;;;;;;;6.20;4.75;;;;;;;;;;5028915;28;20033;-78
2023/01/04 04:55:43;;;;;;;4.93;4.22;;;;;;;;;;5023709;28;20041;-78
2023/01/04 04:58:09;;;;;;;4.97;4.20;;;;;;;;;;4998882;28;20022;-78
2023/01/04 05:00:35;;;;;;;6.15;4.20;;;;;;;;;;4996764;28;20045;-78
2023/01/04 05:03:01;;;;;;;6.65;4.22;;;;;;;;;;5007750;28;20026;-79
2023/01/04 05:05:28;;;;;;;5.07;4.30;;;;;;;;;;5018213;28;20029;-79
2023/01/04 05:07:54;;;;;;;6.70;4.00;;;;;;;;;;5004289;28;20049;-79
2023/01/04 05:10:20;;;;;;;4.85;3.85;;;;;;;;;;5006035;28;20383;-79
2023/01/04 05:12:58;;;;;;;6.25;3.65;;;;;;;;;;5019197;28;20461;-79
2023/01/04 05:15:28;;;;;;;4.32;3.67;;;;;;;;;;5005869;28;20042;-79
2023/01/04 05:17:54;;;;;;;4.18;3.35;;;;;;;;;;5006745;28;20033;-79
2023/01/04 05:20:20;;;;;;;3.70;3.05;;;;;;;;;;5018085;28;20072;-79
2023/01/04 05:22:46;;;;;;;4.00;3.28;;;;;;;;;;5020555;28;20018;-79
2023/01/04 05:25:12;;;;;;;3.97;2.60;;;;;;;;;;5016918;28;20443;-79
2023/01/04 05:27:39;;;;;;;3.47;2.83;;;;;;;;;;4961795;28;1315459;-79
2023/01/04 05:32:49;;;;;;;3.30;2.67;;;;;;;;;;4999603;28;20038;-79
2023/01/04 05:35:16;;;;;;;4.63;3.00;;;;;;;;;;4997705;28;20472;-78
2023/01/04 05:37:42;;;;;;;4.25;2.97;;;;;;;;;;4990256;28;20245;-78
2023/01/04 05:40:08;;;;;;;2.58;2.22;;;;;;;;;;5002077;28;20022;-79
2023/01/04 05:42:34;;;;;;;2.95;2.65;;;;;;;;;;5018730;28;20053;-78
2023/01/04 05:45:00;;;;;;;2.40;2.20;;;;;;;;;;5019645;28;20042;-78
2023/01/04 05:47:27;;;;;;;4.00;2.35;;;;;;;;;;5009776;28;20032;-79
2023/01/04 05:49:53;;;;;;;2.58;2.10;;;;;;;;;;5003507;28;20040;-79
2023/01/04 05:52:19;;;;;;;2.42;2.20;;;;;;;;;;5018450;28;20018;-78
2023/01/04 05:54:45;;;;;;;4.45;2.33;;;;;;;;;;5021745;28;20049;-78
2023/01/04 05:57:11;;;;;;;2.67;2.25;;;;;;;;;;5017450;28;20034;-78
2023/01/04 05:59:37;;;;;;;2.53;2.25;;;;;;;;;;4999730;28;20034;-78
2023/01/04 06:02:04;;;;;;;4.07;3.00;;;;;;;;;;4997042;28;20015;-78
2023/01/04 06:04:30;;;;;;;2.30;2.05;;;;;;;;;;5008971;28;20119;-78
2023/01/04 06:06:56;;;;;;;2.90;2.58;;;;;;;;;;5018651;28;20123;-78
2023/01/04 06:09:23;;;;;;;2.40;2.05;;;;;;;;;;5011302;28;20030;-79
2023/01/04 06:11:50;;;;;;;2.17;1.75;;;;;;;;;;5009176;28;20022;-78
2023/01/04 06:14:16;;;;;;;2.72;2.30;;;;;;;;;;5020447;28;20060;-77
2023/01/04 06:16:41;;;;;;;2.67;2.17;;;;;;;;;;5014312;28;20015;-78
2023/01/04 06:19:07;;;;;;;2.22;1.70;;;;;;;;;;5009216;28;20045;-78
2023/01/04 06:21:33;;;;;;;4.43;3.20;;;;;;;;;;5014745;28;20485;-78
2023/01/04 06:23:59;;;;;;;4.25;3.58;;;;;;;;;;5017465;28;20129;-79
2023/01/04 06:26:25;;;;;;;4.95;4.00;;;;;;;;;;5015176;28;20057;-78
2023/01/04 06:28:51;;;;;;;4.65;3.63;;;;;;;;;;5002367;28;20046;-78
2023/01/04 06:31:17;;;;;;;4.18;3.58;;;;;;;;;;4999802;28;20120;-78
2023/01/04 06:33:43;;;;;;;4.78;3.17;;;;;;;;;;5015688;28;20140;-79
2023/01/04 06:36:09;;;;;;;2.65;2.42;;;;;;;;;;5011002;28;20022;-79
2023/01/04 06:38:35;;;;;;;2.20;2.00;;;;;;;;;;5004367;28;20039;-79
2023/01/04 06:41:02;;;;;;;2.42;2.22;;;;;;;;;;5000758;28;20127;-80
2023/01/04 06:43:28;;;;;;;1.92;1.80;;;;;;;;;;4999840;28;20112;-79
2023/01/04 06:45:54;;;;;;;2.60;1.92;;;;;;;;;;4999652;28;20026;-80
2023/01/04 06:48:20;;;;;;;2.70;2.20;;;;;;;;;;5000903;28;20073;-80
2023/01/04 06:50:46;;;;;;;2.65;2.08;;;;;;;;;;5011888;28;20046;-79
2023/01/04 06:53:12;;;;;;;2.30;1.70;;;;;;;;;;5006482;28;20113;-80
2023/01/04 06:55:38;;;;;;;3.03;1.73;;;;;;;;;;4997864;28;20397;-80
2023/01/04 06:58:04;;;;;;;2.03;1.83;;;;;;;;;;4996828;28;20091;-79
2023/01/04 07:00:30;;;;;;;2.67;1.80;;;;;;;;;;4996835;28;20073;-79
2023/01/04 07:02:56;;;;;;;2.08;1.58;;;;;;;;;;4996739;28;20026;-80
2023/01/04 07:05:22;;;;;;;2.88;2.05;;;;;;;;;;4999988;28;20023;-79
2023/01/04 07:07:48;;;;;;;2.35;1.75;;;;;;;;;;5001002;28;20033;-79
2023/01/04 07:10:14;;;;;;;3.33;2.47;;;;;;;;;;5000997;28;20030;-79
2023/01/04 07:12:40;;;;;;;2.67;2.03;;;;;;;;;;5002560;28;20030;-79
2023/01/04 07:15:06;;;;;;;1.88;1.75;;;;;;;;;;5004861;28;20458;-79
2023/01/04 07:17:32;;;;;;;2.40;1.88;;;;;;;;;;4992635;28;20038;-79
2023/01/04 07:19:58;;;;;;;3.58;2.10;;;;;;;;;;5001821;28;20052;-78
2023/01/04 07:22:24;;;;;;;2.20;2.00;;;;;;;;;;4998503;28;20041;-78
2023/01/04 07:24:50;;;;;;;3.17;2.00;;;;;;;;;;5000623;28;20541;-78
2023/01/04 07:27:16;;;;;;;2.05;1.88;;;;;;;;;;4998393;28;20035;-78
2023/01/04 07:29:43;;;;;;;1.98;1.77;;;;;;;;;;5003717;28;20045;-79
2023/01/04 07:32:09;;;;;;;2.75;2.10;;;;;;;;;;4997976;28;20053;-78
2023/01/04 07:34:36;;;;;;;2.63;2.28;;;;;;;;;;5007054;28;20045;-79
2023/01/04 07:37:03;;;;;;;2.85;2.08;;;;;;;;;;5011907;28;20041;-79
2023/01/04 07:39:29;;;;;;;4.82;2.03;;;;;;;;;;5024462;28;20064;-79
2023/01/04 07:41:57;;;;;;;2.90;1.80;;;;;;;;;;5016185;28;20061;-79
2023/01/04 07:44:25;;;;;;;1.85;1.58;;;;;;;;;;4998870;28;20093;-78
2023/01/04 07:46:51;;;;;;;3.33;1.90;;;;;;;;;;5000179;28;20655;-79
2023/01/04 07:49:17;;;;;;;5.53;2.03;;;;;;;;;;5002408;28;20057;-78
2023/01/04 07:51:43;;;;;;;2.45;1.67;;;;;;;;;;5018734;28;20073;-79
2023/01/04 07:54:10;;;;;;;1.95;1.80;;;;;;;;;;5021070;28;20033;-79
2023/01/04 07:56:37;;;;;;;1.73;1.60;;;;;;;;;;5021943;28;20038;-78
2023/01/04 07:59:05;;;;;;;2.95;1.90;;;;;;;;;;5004535;28;20041;-79
2023/01/04 08:01:34;;;;;;;6.15;1.90;;;;;;;;;;5003396;28;20030;-78
2023/01/04 08:04:00;;;;;;;2.05;1.85;;;;;;;;;;5004117;28;20085;-79
2023/01/04 08:06:26;;;;;;;2.50;1.45;;;;;;;;;;5000717;28;20153;-79
2023/01/04 08:08:52;;;;;;;2.60;1.98;;;;;;;;;;5002409;28;20450;-83
2023/01/04 08:11:21;;;;;;;2.45;1.90;;;;;;;;;;5000974;28;20055;-79
2023/01/04 08:13:47;;;;;;;2.25;2.03;;;;;;;;;;5004676;28;20022;-80
2023/01/04 08:16:21;;;;;;;1.88;1.67;;;;;;;;;;5001331;28;20030;-79
2023/01/04 08:18:47;;;;;;;2.00;1.80;;;;;;;;;;4995373;28;20019;-78
2023/01/04 08:21:13;;;;;;;1.60;1.50;;;;;;;;;;5014270;28;20370;-79
2023/01/04 08:23:39;;;;;;;1.52;1.25;;;;;;;;;;5019989;28;20064;-80
2023/01/04 08:26:06;;;;;;;2.42;1.50;;;;;;;;;;5001912;28;20076;-79
2023/01/04 08:28:33;;;;;;;4.50;2.20;;;;;;;;;;5003633;28;20041;-78
2023/01/04 08:30:59;;;;;;;3.08;2.30;;;;;;;;;;5004210;28;20114;-79
2023/01/04 08:33:25;;;;;;;3.45;2.00;;;;;;;;;;5003123;28;20480;-80
2023/01/04 08:35:51;;;;;;;2.40;1.83;;;;;;;;;;5001382;28;20053;-79
2023/01/04 08:38:17;;;;;;;2.47;2.00;;;;;;;;;;5011009;28;20030;-80
2023/01/04 08:40:43;;;;;;;2.35;1.85;;;;;;;;;;5012112;28;20030;-79
2023/01/04 08:43:09;;;;;;;2.90;1.88;;;;;;;;;;5008076;28;20098;-79
2023/01/04 08:45:35;;;;;;;1.48;1.38;;;;;;;;;;5019702;28;20038;-80
2023/01/04 08:48:01;;;;;;;1.52;1.40;;;;;;;;;;5004177;28;20023;-79
2023/01/04 08:50:53;;;;;;;2.03;1.38;;;;;;;;;;5014449;28;20022;-80
2023/01/04 08:53:19;;;;;;;2.00;1.17;;;;;;;;;;5009536;28;20085;-80
2023/01/04 08:55:48;;;;;;;2.50;1.65;;;;;;;;;;5005274;28;20081;-78
2023/01/04 08:58:14;;;;;;;1.30;1.17;;;;;;;;;;5005673;28;20022;-78
2023/01/04 09:00:40;;;;;;;1.80;1.35;;;;;;;;;;5005495;28;20065;-78
2023/01/04 09:03:06;;;;;;;3.08;1.20;;;;;;;;;;5003580;28;20030;-80
2023/01/04 09:05:32;;;;;;;2.22;1.20;;;;;;;;;;5005647;28;20516;-79
2023/01/04 09:07:59;;;;;;;1.88;1.55;;;;;;;;;;5009519;28;20034;-80
2023/01/04 09:10:27;;;;;;;1.35;1.25;;;;;;;;;;5003754;28;20030;-80
2023/01/04 09:12:54;;;;;;;2.25;1.67;;;;;;;;;;5010046;28;20026;-79
2023/01/04 09:15:20;;;;;;;2.33;1.67;;;;;;;;;;5013609;28;20034;-78
2023/01/04 09:17:46;;;;;;;1.30;1.20;;;;;;;;;;5007869;28;20038;-79
2023/01/04 09:20:12;;;;;;;1.90;1.73;;;;;;;;;;5007686;28;20088;-80
2023/01/04 09:22:38;;;;;;;1.45;1.35;;;;;;;;;;5018016;28;20029;-79
2023/01/04 09:25:04;;;;;;;1.92;1.75;;;;;;;;;;5012695;28;20085;-78
2023/01/04 09:27:33;;;;;;;1.73;1.40;;;;;;;;;;5012776;28;20030;-79
2023/01/04 09:29:59;;;;;;;3.97;1.70;;;;;;;;;;5010948;28;20026;-80
2023/01/04 09:32:25;;;;;;;1.58;1.45;;;;;;;;;;5019762;28;20024;-79
2023/01/04 09:34:51;;;;;;;2.38;1.35;;;;;;;;;;5028833;28;20022;-79
2023/01/04 09:37:17;;;;;;;1.83;1.25;;;;;;;;;;5018037;28;20102;-78
2023/01/04 09:39:44;;;;;;;1.60;1.50;;;;;;;;;;5018197;28;20054;-80
2023/01/04 09:42:37;;;;;;;1.65;1.33;;;;;;;;;;5020027;28;20014;-81
2023/01/04 09:45:17;;;;;;;2.72;2.13;;;;;;;;;;5007094;28;20042;-80
2023/01/04 09:47:45;;;;;;;1.52;1.42;;;;;;;;;;5008696;28;20025;-84
2023/01/04 09:50:14;;;;;;;1.30;1.20;;;;;;;;;;5026026;28;20108;-83
2023/01/04 09:52:46;;;;;;;2.47;1.33;;;;;;;;;;5010164;28;20057;-82
2023/01/04 09:55:20;;;;;;;1.50;1.40;;;;;;;;;;5009934;28;20053;-82
2023/01/04 09:57:55;;;;;;;2.20;1.52;;;;;;;;;;5008952;28;20061;-82
2023/01/04 10:00:32;;;;;;;1.02;1.02;;;;;;;;;;5010993;28;20027;-82
2023/01/04 10:03:20;;;;;;;7.72;2.20;;;;;;;;;;5009603;28;20042;-82
2023/01/04 10:05:46;;;;;;;1.35;1.25;;;;;;;;;;5009220;28;20057;-82
2023/01/04 10:08:16;;;;;;;2.17;1.40;;;;;;;;;;5011188;28;20115;-82
2023/01/04 10:10:47;;;;;;;2.17;1.70;;;;;;;;;;5009899;28;20026;-82
2023/01/04 10:13:19;;;;;;;4.10;1.42;;;;;;;;;;5010995;28;20027;-83
2023/01/04 10:15:58;;;;;;;2.25;1.52;;;;;;;;;;5012666;28;20022;-82
2023/01/04 10:18:27;;;;;;;1.65;1.55;;;;;;;;;;5013806;28;20086;-83
2023/01/04 10:20:56;;;;;;;1.65;1.20;;;;;;;;;;5014758;28;20093;-82
2023/01/04 10:23:31;;;;;;;1.38;1.10;;;;;;;;;;5017362;28;20045;-82
2023/01/04 10:26:00;;;;;;;2.08;1.30;;;;;;;;;;4996940;28;20061;-82
2023/01/04 10:28:35;;;;;;;0.98;0.90;;;;;;;;;;4997954;28;20030;-82
2023/01/04 10:31:15;;;;;;;1.70;1.08;;;;;;;;;;5009048;28;20027;-81
2023/01/04 10:33:54;;;;;;;1.33;1.10;;;;;;;;;;5008992;28;20115;-81
2023/01/04 10:36:21;;;;;;;2.22;1.38;;;;;;;;;;4994192;28;20544;-82
2023/01/04 10:38:55;;;;;;;1.00;1.00;;;;;;;;;;5009642;28;20406;-81
2023/01/04 10:41:25;;;;;;;4.80;1.40;;;;;;;;;;5009275;28;20026;-82
2023/01/04 10:44:24;;;;;;;1.45;1.00;;;;;;;;;;5012513;28;20069;-82
2023/01/04 10:47:09;;;;;;;1.65;1.02;;;;;;;;;;4976884;28;20081;-84
2023/01/04 10:49:35;;;;;;;1.08;0.88;;;;;;;;;;5010149;28;20019;-81
2023/01/04 10:52:01;;;;;;;1.15;0.80;;;;;;;;;;5019741;28;20030;-82
2023/01/04 10:54:38;;;;;;;1.13;0.93;;;;;;;;;;5011026;28;20114;-82
2023/01/04 10:57:10;;;;;;;2.92;1.10;;;;;;;;;;5009768;28;20041;-82
2023/01/04 10:59:42;;;;;;;0.68;0.60;;;;;;;;;;5009107;28;20037;-81
2023/01/04 11:02:11;;;;;;;1.35;0.70;;;;;;;;;;4998535;28;20030;-81
2023/01/04 11:04:40;;;;;;;4.25;0.95;;;;;;;;;;5005864;28;20030;-81
2023/01/04 11:07:16;;;;;;;0.73;0.73;;;;;;;;;;5004325;28;20509;-81
2023/01/04 11:09:45;;;;;;;1.20;0.70;;;;;;;;;;4999985;28;20072;-83
2023/01/04 11:12:13;;;;;;;3.28;1.00;;;;;;;;;;5023964;28;20045;-82
2023/01/04 11:14:39;;;;;;;1.40;0.70;;;;;;;;;;5007361;28;20018;-83
2023/01/04 11:17:05;;;;;;;1.58;1.10;;;;;;;;;;5010167;28;20030;-82
2023/01/04 11:19:32;;;;;;;1.83;1.02;;;;;;;;;;5001957;28;20152;-82
2023/01/04 11:22:01;;;;;;;1.15;0.65;;;;;;;;;;5024337;28;20034;-82
2023/01/04 11:24:31;;;;;;;1.08;0.60;;;;;;;;;;5007199;28;20117;-82
2023/01/04 11:26:59;;;;;;;3.25;0.70;;;;;;;;;;5006989;28;20061;-82
2023/01/04 11:29:25;;;;;;;1.50;1.05;;;;;;;;;;5001055;28;20036;-83
2023/01/04 11:32:00;;;;;;;2.03;1.13;;;;;;;;;;5010593;28;20042;-82
2023/01/04 11:34:47;;;;;;;1.63;1.15;;;;;;;;;;5009186;28;20030;-83
2023/01/04 11:37:51;;;;;;;4.63;1.27;;;;;;;;;;5007189;28;20022;-83
2023/01/04 11:40:17;;;;;;;3.88;0.90;;;;;;;;;;4965333;28;20142;-83
2023/01/04 11:43:06;;;;;;;2.08;0.82;;;;;;;;;;4965326;29;20038;-82
2023/01/04 11:45:32;;;;;;;1.48;0.90;;;;;;;;;;4970883;28;20041;-82
2023/01/04 11:47:59;;;;;;;2.67;0.90;;;;;;;;;;4994150;28;20050;-82
2023/01/04 11:50:36;;;;;;;2.17;0.98;;;;;;;;;;5004401;28;20042;-82
2023/01/04 11:53:21;;;;;;;1.02;0.70;;;;;;;;;;5013895;28;20053;-82
2023/01/04 11:55:47;;;;;;;3.65;1.45;;;;;;;;;;5016911;28;20094;-81
2023/01/04 11:58:14;;;;;;;1.38;0.63;;;;;;;;;;5016200;28;20022;-82
2023/01/04 12:00:50;;;;;;;0.73;0.73;;;;;;;;;;5013689;28;20031;-82
2023/01/04 12:03:18;;;;;;;0.63;0.63;;;;;;;;;;5022384;28;20126;-82
2023/01/04 12:05:44;;;;;;;1.85;1.10;;;;;;;;;;5016701;28;20054;-82
2023/01/04 12:08:22;;;;;;;1.52;0.98;;;;;;;;;;5019411;28;20006;-83
2023/01/04 12:10:48;;;;;;;1.73;0.98;;;;;;;;;;5017181;28;20018;-83
2023/01/04 12:13:15;;;;;;;1.35;0.70;;;;;;;;;;5023369;28;20014;-83
2023/01/04 12:15:47;;;;;;;2.00;1.10;;;;;;;;;;5008164;28;20022;-83
2023/01/04 12:18:22;;;;;;;1.23;0.70;;;;;;;;;;5027466;28;20014;-82
2023/01/04 12:20:48;;;;;;;1.65;0.82;;;;;;;;;;5020406;28;20035;-82
2023/01/04 12:23:14;;;;;;;1.40;0.90;;;;;;;;;;5005626;28;20038;-83
2023/01/04 12:25:42;;;;;;;0.95;0.85;;;;;;;;;;5019545;28;20033;-82
2023/01/04 12:28:27;;;;;;;1.35;1.10;;;;;;;;;;5016368;28;20025;-81
2023/01/04 12:30:53;;;;;;;1.15;0.85;;;;;;;;;;5002297;28;20033;-82
2023/01/04 12:33:29;;;;;;;2.38;0.90;;;;;;;;;;5004599;28;20030;-80
2023/01/04 12:36:06;;;;;;;3.85;1.25;;;;;;;;;;5020806;28;20017;-81
2023/01/04 12:38:51;;;;;;;0.85;0.70;;;;;;;;;;5009755;28;20022;-81
2023/01/04 12:41:18;;;;;;;1.17;0.80;;;;;;;;;;5022786;28;20014;-81
2023/01/04 12:43:46;;;;;;;0.85;0.65;;;;;;;;;;5022565;28;20030;-81
2023/01/04 12:49:15;;;;;;;;;;;;;;;;;;5019806;28;20040;-81
2023/01/04 12:51:41;;;;;;;3.55;0.68;;;;;;;;;;5040038;28;19897;-84
2023/01/04 12:54:21;;;;;;;1.00;0.70;;;;;;;;;;5035310;28;20048;-83
2023/01/04 12:57:09;;;;;;;1.65;0.90;;;;;;;;;;5006254;28;20093;-83
2023/01/04 12:59:37;;;;;;;1.17;0.55;;;;;;;;;;5005918;28;20027;-84
2023/01/04 13:02:17;;;;;;;1.13;0.70;;;;;;;;;;5000377;28;20078;-82
2023/01/04 13:04:43;;;;;;;1.08;0.63;;;;;;;;;;5004702;28;20121;-82
2023/01/04 13:07:13;;;;;;;0.70;0.52;;;;;;;;;;5005732;28;20027;-83
2023/01/04 13:10:09;;;;;;;2.08;0.85;;;;;;;;;;5009432;28;20026;-82
2023/01/04 13:12:38;;;;;;;2.58;0.93;;;;;;;;;;5010423;28;20038;-83
2023/01/04 13:15:08;;;;;;;1.13;0.63;;;;;;;;;;5006883;28;20022;-84
2023/01/04 13:17:39;;;;;;;1.60;0.75;;;;;;;;;;5014499;28;20022;-82
2023/01/04 13:20:15;;;;;;;2.35;0.75;;;;;;;;;;5015511;28;20018;-83
2023/01/04 13:22:46;;;;;;;0.68;0.60;;;;;;;;;;5017368;28;20034;-82
2023/01/04 13:25:13;;;;;;;2.75;0.68;;;;;;;;;;5006333;28;20057;-81
2023/01/04 13:27:53;;;;;;;3.08;0.65;;;;;;;;;;5008489;28;20031;-82
2023/01/04 13:30:34;;;;;;;1.02;0.90;;;;;;;;;;5008603;28;20527;-82
2023/01/04 13:33:07;;;;;;;2.90;0.82;;;;;;;;;;5009704;28;20022;-82
2023/01/04 13:35:33;;;;;;;0.90;0.50;;;;;;;;;;5004790;28;20030;-83
2023/01/04 13:37:59;;;;;;;2.85;0.90;;;;;;;;;;5006676;28;20370;-83
2023/01/04 13:40:27;;;;;;;1.02;0.80;;;;;;;;;;5013605;28;20022;-83
2023/01/04 13:42:57;;;;;;;1.38;0.65;;;;;;;;;;5008388;28;20058;-83
2023/01/04 13:45:26;;;;;;;1.45;0.60;;;;;;;;;;5006760;28;20027;-81
2023/01/04 13:47:56;;;;;;;1.80;0.60;;;;;;;;;;5013725;28;20059;-82
2023/01/04 13:50:30;;;;;;;0.57;0.40;;;;;;;;;;5007994;28;20037;-82
2023/01/04 13:52:56;;;;;;;0.98;0.60;;;;;;;;;;5006609;28;20026;-83
2023/01/04 13:55:25;;;;;;;0.43;0.40;;;;;;;;;;5005906;28;20030;-83
2023/01/04 13:57:53;;;;;;;1.95;0.50;;;;;;;;;;5009987;28;20034;-83
2023/01/04 14:00:19;;;;;;;0.95;0.17;;;;;;;;;;5011392;28;20370;-83
2023/01/04 14:02:45;;;;;;;2.78;1.10;;;;;;;;;;5025051;28;20080;-82
2023/01/04 14:05:17;;;;;;;1.55;1.20;;;;;;;;;;5026534;28;20019;-82
2023/01/04 14:07:44;;;;;;;1.15;0.70;;;;;;;;;;5008666;28;20027;-82
2023/01/04 14:10:17;;;;;;;3.97;1.90;;;;;;;;;;5008333;28;20023;-82
2023/01/04 14:12:44;;;;;;;27.77;10.60;;;;;;;;;;5009649;28;20031;-82
2023/01/04 14:15:22;;;;;;;31.45;13.27;;;;;;;;;;5006784;28;20018;-82
2023/01/04 14:17:51;;;;;;;22.67;11.70;;;;;;;;;;5008780;28;20042;-81
2023/01/04 14:20:23;;;;;;;3.10;2.30;;;;;;;;;;5007756;28;20034;-83
2023/01/04 14:22:49;;;;;;;2.67;2.17;;;;;;;;;;5009488;28;20014;-83
2023/01/04 14:25:39;;;;;;;2.38;1.75;;;;;;;;;;5008157;28;20022;-83
2023/01/04 14:28:26;;;;;;;2.33;1.02;;;;;;;;;;5013399;28;20507;-83
2023/01/04 14:31:12;;;;;;;1.13;0.60;;;;;;;;;;5016289;28;20022;-83
2023/01/04 14:33:41;;;;;;;1.08;0.60;;;;;;;;;;5021788;28;20060;-83
2023/01/04 14:36:07;;;;;;;1.48;0.80;;;;;;;;;;5007228;28;20033;-83
2023/01/04 14:38:41;;;;;;;0.55;0.55;;;;;;;;;;5004239;28;20030;-83
2023/01/04 14:41:31;;;;;;;0.60;0.60;;;;;;;;;;5007456;28;20037;-84
2023/01/04 14:44:00;;;;;;;2.70;0.85;;;;;;;;;;5001985;28;20096;-86
2023/01/04 14:46:27;;;;;;;0.73;0.55;;;;;;;;;;5006796;28;20042;-84
2023/01/04 14:48:53;;;;;;;2.33;1.20;;;;;;;;;;5038265;28;20026;-85
2023/01/04 14:51:22;;;;;;;2.00;1.00;;;;;;;;;;5008662;28;20034;-82
2023/01/04 14:53:48;;;;;;;1.27;0.88;;;;;;;;;;5018230;28;20042;-82
2023/01/04 14:56:15;;;;;;;2.05;1.20;;;;;;;;;;5005052;28;20022;-82
2023/01/04 14:58:41;;;;;;;3.63;1.77;;;;;;;;;;5001563;28;20030;-84
2023/01/04 15:01:08;;;;;;;10.30;5.20;;;;;;;;;;4997626;28;20030;-83
2023/01/04 15:03:34;;;;;;;6.47;3.38;;;;;;;;;;5005016;28;20441;-83
2023/01/04 15:06:00;;;;;;;2.03;1.27;;;;;;;;;;5018829;28;20046;-84
2023/01/04 15:08:26;;;;;;;3.75;1.88;;;;;;;;;;4997718;28;20023;-83
2023/01/04 15:10:52;;;;;;;4.22;2.33;;;;;;;;;;5004913;28;20026;-84
2023/01/04 15:13:18;;;;;;;1.73;1.25;;;;;;;;;;5002398;28;20066;-84
2023/01/04 15:15:44;;;;;;;1.98;1.48;;;;;;;;;;5004199;28;20405;-83
2023/01/04 15:18:11;;;;;;;1.55;1.25;;;;;;;;;;5011367;28;20033;-84
2023/01/04 15:20:40;;;;;;;1.58;1.02;;;;;;;;;;5011449;28;20509;-84
2023/01/04 15:23:07;;;;;;;1.42;0.52;;;;;;;;;;5018183;28;20093;-84
2023/01/04 15:25:33;;;;;;;1.83;0.50;;;;;;;;;;5005945;28;20026;-83
2023/01/04 15:27:59;;;;;;;1.05;0.65;;;;;;;;;;5011261;28;20030;-84
2023/01/04 15:30:25;;;;;;;1.02;0.70;;;;;;;;;;5008209;28;20098;-84
2023/01/04 15:32:52;;;;;;;2.58;0.50;;;;;;;;;;4995351;28;20050;-83
2023/01/04 15:35:18;;;;;;;1.08;0.50;;;;;;;;;;5000263;28;20037;-84
2023/01/04 15:37:44;;;;;;;0.88;0.65;;;;;;;;;;5025652;28;20034;-84
2023/01/04 15:40:11;;;;;;;1.13;0.45;;;;;;;;;;5008232;28;20085;-84
2023/01/04 15:45:37;;;;;;;1.10;0.47;;;;;;;;;;4998890;28;20037;-83
2023/01/04 15:48:04;;;;;;;1.00;0.60;;;;;;;;;;5003545;28;20029;-85